Time;durP1;ratioP1;P1;durP2;ratioP2;P2;SDS_P1;SDS_P2;PMS_P1;PMS_P2;Temp;Humidity;BMP_temperature;BMP_pressure;BME280_temperature;BME280_humidity;BME280_pressure;Samples;Min_cycle;Max_cycle;Signal;HPM_P1;HPM_P2
2024/02/17 00:00:18;;;;;;;;;;;;;;;12.52;53.60;101049.88;4936428;28;98053;-69
2024/02/17 00:02:44;;;;;;;;;;;;;;;12.53;53.46;101048.78;4901282;28;98485;-70
2024/02/17 00:05:11;;;;;;;;;;;;;;;12.51;53.50;101040.94;4922878;28;99060;-70
2024/02/17 00:07:38;;;;;;;;;;;;;;;12.52;53.69;101045.25;4905315;28;98312;-67
2024/02/17 00:10:05;;;;;;;;;;;;;;;12.51;53.53;101042.84;4907739;28;98193;-67
2024/02/17 00:12:31;;;;;;;;;;;;;;;12.52;53.44;101050.69;4905809;28;98454;-70
2024/02/17 00:14:57;;;;;;;;;;;;;;;12.51;53.78;101053.66;4908083;28;98497;-70
2024/02/17 00:17:23;;;;;;;;;;;;;;;12.52;53.42;101050.69;4936569;28;98022;-70
2024/02/17 00:19:50;;;;;;;;;;;;;;;12.52;53.72;101049.88;4916343;28;98453;-70
2024/02/17 00:22:16;;;;;;;;;;;;;;;12.51;53.74;101054.47;4906109;28;99133;-70
2024/02/17 00:24:46;;;;;;;;;;;;;;;12.51;53.39;101059.06;4934221;28;98306;-67
2024/02/17 00:27:12;;;;;;;;;;;;;;;12.51;53.61;101059.06;4904374;28;98180;-70
2024/02/17 00:29:42;;;;;;;;;;;;;;;12.52;53.49;101066.09;4921329;28;98150;-67
2024/02/17 00:32:11;;;;;;;;;;;;;;;12.51;53.54;101064.47;4914220;28;98670;-67
2024/02/17 00:34:37;;;;;;;;;;;;;;;12.51;53.47;101067.97;4900821;28;98392;-67
2024/02/17 00:37:07;;;;;;;;;;;;;;;12.51;53.57;101059.06;4904234;28;98043;-67
2024/02/17 00:39:34;;;;;;;;;;;;;;;12.50;53.82;101071.78;4922177;28;98573;-70
2024/02/17 00:42:00;;;;;;;;;;;;;;;12.50;53.51;101066.38;4916652;28;98496;-70
2024/02/17 00:44:30;;;;;;;;;;;;;;;12.50;53.54;101065.56;4900220;28;98599;-67
2024/02/17 00:46:56;;;;;;;;;;;;;;;12.50;53.81;101074.47;4903759;28;101538;-69
2024/02/17 00:49:23;;;;;;;;;;;;;;;12.49;53.29;101070.13;4935135;28;98293;-68
2024/02/17 00:51:49;;;;;;;;;;;;;;;12.49;53.92;101062.00;4920415;28;98199;-69
2024/02/17 00:54:16;;;;;;;;;;;;;;;12.49;53.72;101066.63;4916117;28;99918;-67
2024/02/17 00:56:44;;;;;;;;;;;;;;;12.50;53.58;101081.78;4908047;28;98306;-68
2024/02/17 00:59:10;;;;;;;;;;;;;;;12.49;53.37;101074.72;4937058;28;98355;-70
2024/02/17 01:01:37;;;;;;;;;;;;;;;12.49;53.75;101083.66;4906187;28;98987;-70
2024/02/17 01:04:03;;;;;;;;;;;;;;;12.49;53.80;101099.88;4920374;28;99544;-69
2024/02/17 01:06:30;;;;;;;;;;;;;;;12.49;53.75;101102.56;4913681;28;98317;-69
2024/02/17 01:08:56;;;;;;;;;;;;;;;12.49;53.64;101101.75;4906230;28;98132;-67
2024/02/17 01:11:23;;;;;;;;;;;;;;;12.49;53.44;101105.28;4899082;28;98258;-67
2024/02/17 01:13:53;;;;;;;;;;;;;;;12.50;53.54;101114.22;4920801;28;98090;-67
2024/02/17 01:16:20;;;;;;;;;;;;;;;12.49;53.55;101121.50;4911625;28;98470;-67
2024/02/17 01:18:47;;;;;;;;;;;;;;;12.49;53.56;101109.88;4898288;28;98461;-67
2024/02/17 01:21:13;;;;;;;;;;;;;;;12.49;53.79;101110.69;4904785;28;98312;-69
2024/02/17 01:23:39;;;;;;;;;;;;;;;12.48;53.46;101116.38;4920971;28;98204;-70
2024/02/17 01:26:06;;;;;;;;;;;;;;;12.48;53.82;101119.88;4899914;28;98030;-69
2024/02/17 01:28:32;;;;;;;;;;;;;;;12.48;53.54;101133.41;4914966;28;99702;-67
2024/02/17 01:30:58;;;;;;;;;;;;;;;12.48;53.87;101133.41;4913192;28;98524;-67
2024/02/17 01:33:25;;;;;;;;;;;;;;;12.49;53.55;101139.63;4917742;28;98637;-67
2024/02/17 01:35:51;;;;;;;;;;;;;;;12.47;53.94;101137.19;4921783;28;99704;-70
2024/02/17 01:38:17;;;;;;;;;;;;;;;12.49;53.58;101143.13;4902196;28;98213;-67
2024/02/17 01:40:44;;;;;;;;;;;;;;;12.49;53.47;101147.72;4906182;28;99493;-67
2024/02/17 01:43:13;;;;;;;;;;;;;;;12.48;53.57;101143.41;4904155;28;99825;-67
2024/02/17 01:45:39;;;;;;;;;;;;;;;12.48;53.54;101136.09;4917346;28;99288;-70
2024/02/17 01:48:06;;;;;;;;;;;;;;;12.47;53.73;101134.50;4947591;28;98010;-69
2024/02/17 01:50:32;;;;;;;;;;;;;;;12.47;53.47;101139.09;4935347;28;100394;-70
2024/02/17 01:52:59;;;;;;;;;;;;;;;12.48;53.79;101143.41;4917157;28;98162;-69
2024/02/17 01:55:25;;;;;;;;;;;;;;;12.47;53.75;101137.19;4902533;28;98107;-67
2024/02/17 01:57:53;;;;;;;;;;;;;;;12.47;53.84;101142.59;4904378;28;98268;-67
2024/02/17 02:00:21;;;;;;;;;;;;;;;12.47;53.56;101137.19;4902868;28;98058;-67
2024/02/17 02:02:49;;;;;;;;;;;;;;;12.46;53.43;101143.69;4919808;28;98333;-67
2024/02/17 02:05:16;;;;;;;;;;;;;;;12.45;53.74;101144.75;4900688;28;98292;-69
2024/02/17 02:07:43;;;;;;;;;;;;;;;12.46;53.65;101149.09;4902733;28;98012;-69
2024/02/17 02:10:09;;;;;;;;;;;;;;;12.47;53.63;101155.31;4912027;28;97926;-67
2024/02/17 02:12:36;;;;;;;;;;;;;;;12.46;53.58;101156.41;4940716;28;100488;-67
2024/02/17 02:15:10;;;;;;;;;;;;;;;12.45;53.52;101160.16;4932477;28;98238;-66
2024/02/17 02:17:43;;;;;;;;;;;;;;;12.45;53.68;101168.25;4937518;28;99434;-66
2024/02/17 02:20:13;;;;;;;;;;;;;;;12.44;53.55;101164.75;4917676;28;98529;-69
2024/02/17 02:22:41;;;;;;;;;;;;;;;12.45;53.58;101177.19;4905433;28;98194;-69
2024/02/17 02:25:09;;;;;;;;;;;;;;;12.43;53.60;101176.66;4903349;28;102749;-67
2024/02/17 02:27:41;;;;;;;;;;;;;;;12.42;53.58;101172.31;4912645;28;98407;-69
2024/02/17 02:30:08;;;;;;;;;;;;;;;12.43;53.84;101173.94;4917090;28;98412;-66
2024/02/17 02:32:35;;;;;;;;;;;;;;;12.41;53.61;101176.09;4918816;28;98309;-69
2024/02/17 02:35:02;;;;;;;;;;;;;;;12.42;53.51;101177.72;4932325;28;98445;-69
2024/02/17 02:37:29;;;;;;;;;;;;;;;12.42;53.47;101174.22;4902497;28;98080;-69
2024/02/17 02:39:59;;;;;;;;;;;;;;;12.41;53.66;101186.91;4903804;28;98569;-66
2024/02/17 02:42:28;;;;;;;;;;;;;;;12.41;53.63;101191.50;4913432;28;99495;-66
2024/02/17 02:44:54;;;;;;;;;;;;;;;12.40;53.75;101193.38;4915797;28;99524;-68
2024/02/17 02:47:20;;;;;;;;;;;;;;;12.39;53.72;101194.47;4901846;28;98209;-69
2024/02/17 02:49:46;;;;;;;;;;;;;;;12.40;53.93;101189.88;4901200;28;98203;-69
2024/02/17 02:52:14;;;;;;;;;;;;;;;12.39;53.77;101199.06;4900837;28;98713;-69
2024/02/17 02:54:40;;;;;;;;;;;;;;;12.39;53.54;101193.66;4931864;28;99708;-66
2024/02/17 02:57:08;;;;;;;;;;;;;;;12.38;53.64;101195.56;4915362;28;98047;-66
2024/02/17 02:59:34;;;;;;;;;;;;;;;12.37;53.63;101195.81;4914648;28;98129;-66
2024/02/17 03:02:03;;;;;;;;;;;;;;;12.37;53.86;101199.31;4929626;28;98030;-69
2024/02/17 03:04:29;;;;;;;;;;;;;;;12.37;53.74;101210.13;4895809;28;99820;-69
2024/02/17 03:06:55;;;;;;;;;;;;;;;12.36;53.56;101213.09;4943675;28;98142;-69
2024/02/17 03:09:25;;;;;;;;;;;;;;;12.34;53.59;101218.78;4898339;28;99284;-66
2024/02/17 03:11:51;;;;;;;;;;;;;;;12.34;53.63;101216.06;4930866;28;98242;-69
2024/02/17 03:14:17;;;;;;;;;;;;;;;12.34;53.56;101217.94;4917730;28;98519;-66
2024/02/17 03:16:44;;;;;;;;;;;;;;;12.34;53.64;101226.06;4913589;28;98410;-67
2024/02/17 03:19:10;;;;;;;;;;;;;;;12.33;53.76;101225.25;4916778;28;98313;-69
2024/02/17 03:21:36;;;;;;;;;;;;;;;12.32;53.86;101226.31;4913302;28;99858;-69
2024/02/17 03:24:03;;;;;;;;;;;;;;;12.32;53.73;101229.03;4914063;28;98476;-69
2024/02/17 03:26:31;;;;;;;;;;;;;;;12.32;53.73;101230.91;4904702;28;98283;-66
2024/02/17 03:28:58;;;;;;;;;;;;;;;12.31;53.70;101237.41;4916302;28;99826;-69
2024/02/17 03:31:26;;;;;;;;;;;;;;;12.29;53.83;101246.56;4902958;28;98543;-66
2024/02/17 03:33:54;;;;;;;;;;;;;;;12.29;53.63;101251.97;4895466;28;98342;-69
2024/02/17 03:36:20;;;;;;;;;;;;;;;12.28;53.51;101257.66;4901722;28;98468;-69
2024/02/17 03:38:47;;;;;;;;;;;;;;;12.28;53.77;101255.75;4917365;28;98364;-66
2024/02/17 03:41:18;;;;;;;;;;;;;;;12.27;53.88;101262.25;4917915;28;98508;-66
2024/02/17 03:43:47;;;;;;;;;;;;;;;12.28;53.74;101260.34;4914318;28;98459;-69
2024/02/17 03:46:16;;;;;;;;;;;;;;;12.27;53.65;101264.94;4935301;28;98002;-66
2024/02/17 03:48:43;;;;;;;;;;;;;;;12.25;53.56;101269.78;4928425;28;98674;-66
2024/02/17 03:51:14;;;;;;;;;;;;;;;12.25;53.84;101275.19;4910959;28;99492;-66
2024/02/17 03:53:41;;;;;;;;;;;;;;;12.23;53.92;101282.75;4929126;28;98458;-69
2024/02/17 03:56:10;;;;;;;;;;;;;;;12.24;53.88;101283.56;4902854;28;98196;-66
2024/02/17 03:58:37;;;;;;;;;;;;;;;12.23;53.82;101279.25;4904236;28;98121;-69
2024/02/17 04:01:04;;;;;;;;;;;;;;;12.22;53.93;101283.00;4915784;28;97998;-69
2024/02/17 04:03:31;;;;;;;;;;;;;;;12.22;53.66;101289.25;4899513;28;98248;-69
2024/02/17 04:05:59;;;;;;;;;;;;;;;12.22;53.78;101293.81;4915790;28;98026;-66
2024/02/17 04:08:27;;;;;;;;;;;;;;;12.21;53.80;101297.59;4934117;28;99035;-66
2024/02/17 04:10:57;;;;;;;;;;;;;;;12.20;53.67;101299.50;4906105;28;98638;-67
2024/02/17 04:13:25;;;;;;;;;;;;;;;12.20;53.65;101306.78;4922844;28;98035;-66
2024/02/17 04:15:52;;;;;;;;;;;;;;;12.19;53.88;101308.69;4905911;28;98135;-66
2024/02/17 04:18:22;;;;;;;;;;;;;;;12.18;53.80;101314.31;4930695;28;98099;-69
2024/02/17 04:20:50;;;;;;;;;;;;;;;12.18;53.67;101331.38;4930330;28;98344;-66
2024/02/17 04:23:17;;;;;;;;;;;;;;;12.17;53.70;101331.63;4918671;28;99466;-69
2024/02/17 04:25:45;;;;;;;;;;;;;;;12.18;53.92;101333.25;4918302;28;98361;-66
2024/02/17 04:28:11;;;;;;;;;;;;;;;12.17;54.01;101332.44;4898158;28;98390;-69
2024/02/17 04:30:38;;;;;;;;;;;;;;;12.16;53.70;101333.50;4930646;28;98297;-69
2024/02/17 04:33:05;;;;;;;;;;;;;;;12.16;53.95;101343.50;4902198;28;99949;-69
2024/02/17 04:35:34;;;;;;;;;;;;;;;12.14;53.97;101338.34;4919113;28;98112;-66
2024/02/17 04:38:02;;;;;;;;;;;;;;;12.16;53.87;101338.09;4906606;28;98435;-66
2024/02/17 04:40:32;;;;;;;;;;;;;;;12.15;53.73;101341.88;4914578;28;98473;-66
2024/02/17 04:42:58;;;;;;;;;;;;;;;12.14;53.97;101342.94;4903460;28;97885;-69
2024/02/17 04:45:25;;;;;;;;;;;;;;;12.14;53.49;101345.66;4908674;28;98703;-69
2024/02/17 04:47:54;;;;;;;;;;;;;;;12.14;53.59;101353.75;4919484;28;98047;-66
2024/02/17 04:50:20;;;;;;;;;;;;;;;12.13;54.02;101352.13;4912438;28;98099;-69
2024/02/17 04:52:47;;;;;;;;;;;;;;;12.12;53.68;101353.22;4917862;28;98198;-66
2024/02/17 04:55:13;;;;;;;;;;;;;;;12.11;53.95;101357.00;4899936;28;98218;-69
2024/02/17 04:57:40;;;;;;;;;;;;;;;12.11;53.72;101359.69;4916572;28;98535;-69
2024/02/17 05:00:07;;;;;;;;;;;;;;;12.09;53.87;101359.13;4931496;28;99974;-69
2024/02/17 05:02:38;;;;;;;;;;;;;;;12.09;53.83;101373.44;4917147;28;98144;-66
2024/02/17 05:05:05;;;;;;;;;;;;;;;12.09;53.65;101372.63;4928125;28;98614;-66
2024/02/17 05:07:32;;;;;;;;;;;;;;;12.07;53.73;101370.19;4910416;28;98227;-66
2024/02/17 05:09:58;;;;;;;;;;;;;;;12.07;53.87;101370.19;4900567;28;98226;-66
2024/02/17 05:12:25;;;;;;;;;;;;;;;12.06;53.73;101382.06;4894535;28;101021;-69
2024/02/17 05:14:51;;;;;;;;;;;;;;;12.05;53.77;101380.44;4916960;28;98075;-66
2024/02/17 05:17:18;;;;;;;;;;;;;;;12.05;53.82;101391.25;4900364;28;98288;-69
2024/02/17 05:19:44;;;;;;;;;;;;;;;12.04;53.73;101390.44;4909799;28;99378;-66
2024/02/17 05:22:11;;;;;;;;;;;;;;;12.04;53.82;101395.03;4899406;28;99694;-66
2024/02/17 05:24:38;;;;;;;;;;;;;;;12.03;53.91;101404.19;4931004;28;98475;-66
2024/02/17 05:27:06;;;;;;;;;;;;;;;12.03;53.95;101398.81;4915180;28;99146;-69
2024/02/17 05:29:32;;;;;;;;;;;;;;;12.01;53.78;101404.44;4915630;28;98320;-69
2024/02/17 05:32:00;;;;;;;;;;;;;;;12.02;53.61;101402.53;4901917;28;98157;-67
2024/02/17 05:34:27;;;;;;;;;;;;;;;12.01;53.72;101404.44;4898052;28;98451;-66
2024/02/17 05:36:56;;;;;;;;;;;;;;;11.99;53.87;101414.69;4914043;28;98441;-66
2024/02/17 05:39:24;;;;;;;;;;;;;;;11.99;53.72;101409.28;4917111;28;98487;-66
2024/02/17 05:41:53;;;;;;;;;;;;;;;12.00;53.81;101415.50;4908923;28;98331;-69
2024/02/17 05:44:20;;;;;;;;;;;;;;;11.99;53.95;101416.59;4898666;28;98373;-69
2024/02/17 05:46:50;;;;;;;;;;;;;;;11.99;53.94;101420.09;4927742;28;99826;-66
2024/02/17 05:49:22;;;;;;;;;;;;;;;11.99;53.92;101419.28;4933789;28;98299;-66
2024/02/17 05:51:52;;;;;;;;;;;;;;;11.98;53.68;101428.44;4916355;28;98335;-66
2024/02/17 05:54:20;;;;;;;;;;;;;;;11.97;54.00;101422.22;4892306;28;98217;-69
2024/02/17 05:56:46;;;;;;;;;;;;;;;11.98;53.87;101420.34;4931476;28;99817;-69
2024/02/17 05:59:13;;;;;;;;;;;;;;;11.96;53.59;101420.59;4912727;28;101571;-69
2024/02/17 06:01:41;;;;;;;;;;;;;;;11.96;53.67;101433.31;4915934;28;98103;-66
2024/02/17 06:04:08;;;;;;;;;;;;;;;11.94;53.77;101428.13;4944107;28;98228;-69
2024/02/17 06:06:35;;;;;;;;;;;;;;;11.93;53.68;101439.19;4912096;28;99499;-66
2024/02/17 06:09:02;;;;;;;;;;;;;;;11.92;53.72;101433.00;4900214;28;97933;-66
2024/02/17 06:11:29;;;;;;;;;;;;;;;11.92;53.67;101437.56;4932860;28;98681;-68
2024/02/17 06:13:57;;;;;;;;;;;;;;;11.89;53.75;101444.28;4903489;28;101318;-69
2024/02/17 06:16:28;;;;;;;;;;;;;;;11.88;53.81;101441.84;4876132;28;99465;-66
2024/02/17 06:21:39;;;;;;;;;;;;;;;11.86;53.76;101460.19;4920133;28;98493;-69
2024/02/17 06:24:06;;;;;;;;;;;;;;;11.85;53.79;101475.59;4903310;28;101669;-69
2024/02/17 06:26:35;;;;;;;;;;;;;;;11.84;53.85;101473.16;4916287;28;99619;-67
2024/02/17 06:29:03;;;;;;;;;;;;;;;11.83;53.80;101476.88;4931388;28;98140;-66
2024/02/17 06:31:31;;;;;;;;;;;;;;;11.82;53.81;101483.34;4935416;28;98427;-69
2024/02/17 06:33:58;;;;;;;;;;;;;;;11.82;53.95;101488.75;4902249;28;99729;-66
2024/02/17 06:36:24;;;;;;;;;;;;;;;11.82;53.78;101494.16;4930189;28;98554;-69
2024/02/17 06:38:51;;;;;;;;;;;;;;;11.79;53.95;101496.28;4931749;28;98545;-69
2024/02/17 06:41:18;;;;;;;;;;;;;;;11.79;53.79;101504.41;4928427;28;99006;-66
2024/02/17 06:43:46;;;;;;;;;;;;;;;11.80;53.95;101507.91;4933390;28;98258;-66
2024/02/17 06:46:12;;;;;;;;;;;;;;;11.82;53.73;101511.16;4919002;28;98580;-69
2024/02/17 06:48:39;;;;;;;;;;;;;;;11.85;53.83;101515.28;4899122;28;98306;-66
2024/02/17 06:51:07;;;;;;;;;;;;;;;11.92;53.71;101514.03;4897207;28;98279;-69
2024/02/17 06:53:34;;;;;;;;;;;;;;;12.01;53.42;101517.94;4900191;28;98318;-66
2024/02/17 06:56:01;;;;;;;;;;;;;;;12.08;53.37;101523.16;4910398;28;99516;-66
2024/02/17 06:58:28;;;;;;;;;;;;;;;12.11;53.43;101522.66;4896334;28;101515;-69
2024/02/17 07:00:55;;;;;;;;;;;;;;;12.14;53.47;101524.03;4912413;28;98511;-66
2024/02/17 07:03:22;;;;;;;;;;;;;;;12.14;53.45;101530.25;4908224;28;102735;-66
2024/02/17 07:05:49;;;;;;;;;;;;;;;12.13;53.62;101536.72;4911479;28;98488;-69
2024/02/17 07:08:16;;;;;;;;;;;;;;;12.14;53.72;101532.94;4925017;28;98263;-69
2024/02/17 07:10:43;;;;;;;;;;;;;;;12.15;53.52;101536.50;4927863;28;98727;-69
2024/02/17 07:13:13;;;;;;;;;;;;;;;12.15;53.71;101547.31;4900858;28;98098;-66
2024/02/17 07:15:40;;;;;;;;;;;;;;;12.16;53.65;101543.53;4913995;28;99765;-66
2024/02/17 07:18:07;;;;;;;;;;;;;;;12.16;53.49;101546.22;4909902;28;99792;-69
2024/02/17 07:20:34;;;;;;;;;;;;;;;12.17;53.73;101545.97;4930877;28;98365;-66
2024/02/17 07:23:01;;;;;;;;;;;;;;;12.19;53.72;101545.72;4930463;28;98411;-69
2024/02/17 07:25:27;;;;;;;;;;;;;;;12.22;53.70;101551.44;4897796;28;98482;-69
2024/02/17 07:27:58;;;;;;;;;;;;;;;12.34;53.42;101556.72;4908981;28;99680;-69
2024/02/17 07:30:28;;;;;;;;;;;;;;;12.57;53.02;101565.59;4910922;28;98381;-66
2024/02/17 07:32:56;;;;;;;;;;;;;;;12.64;52.97;101572.47;4918603;28;98277;-66
2024/02/17 07:35:24;;;;;;;;;;;;;;;12.86;52.74;101577.03;4901745;28;98199;-66
2024/02/17 07:37:51;;;;;;;;;;;;;;;13.10;52.88;101580.22;4902394;28;99669;-69
2024/02/17 07:40:17;;;;;;;;;;;;;;;13.49;52.31;101580.84;4903798;28;99352;-69
2024/02/17 07:42:47;;;;;;;;;;;;;;;13.74;52.32;101582.91;4904771;28;98159;-66
2024/02/17 07:45:13;;;;;;;;;;;;;;;13.68;52.51;101589.38;4904461;28;98543;-69
2024/02/17 07:47:39;;;;;;;;;;;;;;;13.62;52.90;101593.13;4930174;28;98214;-69
2024/02/17 07:50:07;;;;;;;;;;;;;;;13.62;52.71;101595.81;4918667;28;99107;-66
2024/02/17 07:52:33;;;;;;;;;;;;;;;13.66;52.65;101605.88;4920563;28;98556;-69
2024/02/17 07:54:59;;;;;;;;;;;;;;;13.59;53.08;101605.28;4921814;28;98384;-66
2024/02/17 07:57:27;;;;;;;;;;;;;;;13.59;53.18;101607.97;4904352;28;99673;-69
2024/02/17 07:59:55;;;;;;;;;;;;;;;13.60;53.14;101614.25;4902580;28;100177;-66
2024/02/17 08:02:22;;;;;;;;;;;;;;;13.63;53.01;101614.50;4915848;28;99779;-70
2024/02/17 08:04:49;;;;;;;;;;;;;;;13.71;53.09;101626.75;4932393;28;100896;-70
2024/02/17 08:07:16;;;;;;;;;;;;;;;13.74;53.06;101634.38;4917014;28;99935;-67
2024/02/17 08:09:44;;;;;;;;;;;;;;;13.73;52.83;101639.00;4917903;28;98809;-66
2024/02/17 08:12:12;;;;;;;;;;;;;;;13.98;52.77;101640.22;4933514;28;98241;-70
2024/02/17 08:14:40;;;;;;;;;;;;;;;14.46;52.17;101636.44;4900725;28;99098;-70
2024/02/17 08:17:07;;;;;;;;;;;;;;;15.94;50.68;101633.09;4917424;28;99615;-70
2024/02/17 08:19:34;;;;;;;;;;;;;;;17.28;49.51;101636.84;4915981;28;99080;-66
2024/02/17 08:22:02;;;;;;;;;;;;;;;18.65;48.67;101634.66;4932398;28;98619;-67
2024/02/17 08:24:29;;;;;;;;;;;;;;;19.88;47.91;101640.97;4916874;28;98319;-70
2024/02/17 08:26:55;;;;;;;;;;;;;;;20.88;47.59;101647.44;4917067;28;100061;-71
2024/02/17 08:29:22;;;;;;;;;;;;;;;21.60;47.38;101645.75;4901793;28;98393;-71
2024/02/17 08:31:52;;;;;;;;;;;;;;;22.52;47.03;101658.63;4913519;28;98358;-68
2024/02/17 08:34:20;;;;;;;;;;;;;;;23.11;47.03;101662.91;4917260;28;98576;-65
2024/02/17 08:36:47;;;;;;;;;;;;;;;22.92;48.14;101666.00;4918037;28;99177;-65
2024/02/17 08:39:18;;;;;;;;;;;;;;;22.09;49.44;101674.94;4914703;28;98291;-65
2024/02/17 08:41:45;;;;;;;;;;;;;;;21.32;50.18;101670.56;4932610;28;98109;-65
2024/02/17 08:44:12;;;;;;;;;;;;;;;20.74;50.87;101679.53;4919540;28;98488;-64
2024/02/17 08:46:39;;;;;;;;;;;;;;;20.23;51.32;101686.00;4917040;28;98029;-68
2024/02/17 08:49:07;;;;;;;;;;;;;;;19.77;51.76;101675.94;4918243;28;98204;-64
2024/02/17 08:51:35;;;;;;;;;;;;;;;19.36;52.04;101687.47;4901358;28;98261;-68
2024/02/17 08:54:02;;;;;;;;;;;;;;;18.98;52.26;101689.41;4914033;28;98157;-68
2024/02/17 08:56:28;;;;;;;;;;;;;;;18.68;52.47;101687.88;4896353;28;100171;-67
2024/02/17 08:58:55;;;;;;;;;;;;;;;18.37;52.67;101689.03;4935531;28;98176;-64
2024/02/17 09:01:22;;;;;;;;;;;;;;;18.07;52.79;101700.28;4916610;28;99624;-64
2024/02/17 09:03:49;;;;;;;;;;;;;;;17.78;52.97;101687.47;4905019;28;98636;-64
2024/02/17 09:06:16;;;;;;;;;;;;;;;17.52;52.88;101696.91;4920616;28;98401;-66
2024/02/17 09:08:42;;;;;;;;;;;;;;;17.27;53.13;101706.09;4901683;28;98392;-70
2024/02/17 09:11:09;;;;;;;;;;;;;;;17.04;53.32;101707.56;4915906;28;98285;-70
2024/02/17 09:13:35;;;;;;;;;;;;;;;16.85;53.26;101710.13;4899589;28;98080;-69
2024/02/17 09:16:02;;;;;;;;;;;;;;;16.68;53.30;101708.53;4900991;28;100074;-66
2024/02/17 09:18:29;;;;;;;;;;;;;;;16.53;53.35;101708.56;4914789;28;98581;-69
2024/02/17 09:20:56;;;;;;;;;;;;;;;16.39;53.42;101715.72;4917767;28;98259;-67
2024/02/17 09:23:23;;;;;;;;;;;;;;;16.26;53.34;101718.97;4898719;28;98265;-69
2024/02/17 09:25:49;;;;;;;;;;;;;;;16.15;53.40;101724.47;4944783;28;98615;-69
2024/02/17 09:28:21;;;;;;;;;;;;;;;16.08;53.22;101731.28;4900043;28;99636;-67
2024/02/17 09:30:49;;;;;;;;;;;;;;;15.99;53.29;101727.44;4908479;28;98390;-69
2024/02/17 09:33:19;;;;;;;;;;;;;;;15.89;53.51;101736.44;4930760;28;100135;-67
2024/02/17 09:35:47;;;;;;;;;;;;;;;15.80;53.40;101743.50;4894014;28;99233;-69
2024/02/17 09:38:13;;;;;;;;;;;;;;;15.75;53.38;101743.50;4909547;28;98230;-67
2024/02/17 09:40:40;;;;;;;;;;;;;;;15.69;53.26;101739.97;4911893;28;99935;-69
2024/02/17 09:43:07;;;;;;;;;;;;;;;15.67;53.29;101740.22;4915673;28;98660;-69
2024/02/17 09:45:34;;;;;;;;;;;;;;;15.69;53.15;101745.41;4899804;28;99138;-67
2024/02/17 09:48:03;;;;;;;;;;;;;;;15.71;52.98;101749.47;4897066;28;98313;-67
2024/02/17 09:50:29;;;;;;;;;;;;;;;15.74;53.09;101748.13;4931900;28;98032;-67
2024/02/17 09:52:56;;;;;;;;;;;;;;;15.76;53.07;101758.72;4913693;28;98780;-70
2024/02/17 09:55:24;;;;;;;;;;;;;;;15.82;52.84;101760.34;4915097;28;98234;-70
2024/02/17 09:57:50;;;;;;;;;;;;;;;15.89;52.87;101761.72;4894926;28;98939;-67
2024/02/17 10:00:18;;;;;;;;;;;;;;;15.95;52.84;101768.81;4910172;28;99636;-70
2024/02/17 10:02:45;;;;;;;;;;;;;;;15.97;52.78;101776.69;4939860;28;98599;-70
2024/02/17 10:05:12;;;;;;;;;;;;;;;16.01;52.72;101772.34;4895329;28;100664;-70
2024/02/17 10:07:55;;;;;;;;;;;;;;;16.14;52.62;101766.31;4908299;28;98219;-70
2024/02/17 10:10:23;;;;;;;;;;;;;;;16.26;52.52;101770.66;4892701;28;98178;-67
2024/02/17 10:12:51;;;;;;;;;;;;;;;16.40;52.35;101777.19;4912309;28;98178;-67
2024/02/17 10:15:20;;;;;;;;;;;;;;;16.51;52.28;101784.25;4913596;28;98583;-67
2024/02/17 10:17:50;;;;;;;;;;;;;;;16.58;52.12;101786.66;4926314;28;98102;-70
2024/02/17 10:20:18;;;;;;;;;;;;;;;16.62;52.07;101782.31;4903548;28;99789;-71
2024/02/17 10:22:44;;;;;;;;;;;;;;;16.62;52.42;101795.91;4911256;28;99016;-70
2024/02/17 10:25:12;;;;;;;;;;;;;;;16.69;52.22;101791.00;4912077;28;99605;-71
2024/02/17 10:27:39;;;;;;;;;;;;;;;16.73;52.37;101786.66;4928256;28;98207;-70
2024/02/17 10:30:13;;;;;;;;;;;;;;;16.73;52.30;101792.09;4911719;28;98442;-70
2024/02/17 10:32:40;;;;;;;;;;;;;;;16.82;52.32;101800.53;4939953;28;98509;-69
2024/02/17 10:35:08;;;;;;;;;;;;;;;16.81;52.33;101799.72;4911409;28;98402;-69
2024/02/17 10:37:39;;;;;;;;;;;;;;;16.63;52.52;101813.91;4909037;28;99433;-66
2024/02/17 10:40:09;;;;;;;;;;;;;;;16.48;52.66;101813.91;4929662;28;98456;-69
2024/02/17 10:42:48;;;;;;;;;;;;;;;16.26;53.05;101812.28;4870704;28;99037;-66
2024/02/17 10:45:14;;;;;;;;;;;;;;;16.12;53.28;101814.75;4926331;28;98381;-68
2024/02/17 10:47:41;;;;;;;;;;;;;;;16.06;52.97;101823.19;4915102;28;98128;-66
2024/02/17 10:50:15;;;;;;;;;;;;;;;15.99;53.38;101825.34;4918587;28;98371;-69
2024/02/17 10:52:44;;;;;;;;;;;;;;;15.92;53.13;101829.16;4900206;28;99275;-69
2024/02/17 10:55:14;;;;;;;;;;;;;;;15.92;52.94;101831.88;4930541;28;98168;-69
2024/02/17 10:57:56;;;;;;;;;;;;;;;15.87;53.02;101834.56;4916246;28;98097;-69
2024/02/17 11:00:23;;;;;;;;;;;;;;;15.84;52.94;101842.47;4930079;28;98179;-69
2024/02/17 11:02:52;;;;;;;;;;;;;;;15.76;53.17;101835.66;4897175;28;98467;-66
2024/02/17 11:05:19;;;;;;;;;;;;;;;15.69;53.10;101846.78;4897876;28;99262;-69
2024/02/17 11:07:45;;;;;;;;;;;;;;;15.61;53.12;101836.41;4901699;28;98313;-69
2024/02/17 11:10:13;;;;;;;;;;;;;;;15.54;53.29;101837.75;4916806;28;98154;-66
2024/02/17 11:12:41;;;;;;;;;;;;;;;15.43;53.50;101840.41;4937270;28;99592;-66
2024/02/17 11:15:11;;;;;;;;;;;;;;;15.37;53.34;101849.66;4912671;28;98468;-66
2024/02/17 11:17:41;;;;;;;;;;;;;;;15.36;53.01;101850.72;4835404;28;1921805;-66
2024/02/17 11:20:13;;;;;;;;;;;;;;;15.34;53.23;101854.78;4896837;28;99706;-66
2024/02/17 11:23:02;;;;;;;;;;;;;;;15.40;53.11;101854.53;4879430;28;99680;-69
2024/02/17 11:25:29;;;;;;;;;;;;;;;15.38;53.14;101859.44;4885853;28;98400;-69
2024/02/17 11:27:56;;;;;;;;;;;;;;;15.34;53.20;101855.63;4894827;28;98878;-66
2024/02/17 11:30:24;;;;;;;;;;;;;;;15.31;53.18;101858.84;4895514;28;98501;-69
2024/02/17 11:33:00;;;;;;;;;;;;;;;15.26;53.21;101868.91;4891508;28;100342;-66
2024/02/17 11:35:27;;;;;;;;;;;;;;;15.25;53.21;101865.38;4910027;28;98572;-68
2024/02/17 11:37:56;;;;;;;;;;;;;;;15.42;53.04;101871.41;4877117;28;98678;-66
2024/02/17 11:40:24;;;;;;;;;;;;;;;15.50;53.10;101869.25;4894752;28;98537;-69
2024/02/17 11:42:54;;;;;;;;;;;;;;;15.64;53.24;101868.50;4894229;28;104190;-69
2024/02/17 11:45:22;;;;;;;;;;;;;;;15.79;52.90;101865.00;4897881;28;98549;-69
2024/02/17 11:47:49;;;;;;;;;;;;;;;15.88;52.76;101868.84;4906612;28;98102;-66
2024/02/17 11:50:16;;;;;;;;;;;;;;;15.89;52.85;101875.91;4911908;28;98203;-69
2024/02/17 11:52:42;;;;;;;;;;;;;;;15.83;53.05;101874.25;4882637;28;98561;-69
2024/02/17 11:55:09;;;;;;;;;;;;;;;15.75;53.12;101872.06;4915861;28;98278;-69
2024/02/17 11:57:41;;;;;;;;;;;;;;;15.71;53.15;101879.13;4914323;28;98393;-69
2024/02/17 12:00:11;;;;;;;;;;;;;;;15.66;53.45;101882.66;4912610;28;98128;-66
2024/02/17 12:02:46;;;;;;;;;;;;;;;15.61;53.41;101888.06;4909786;28;98619;-69
2024/02/17 12:05:14;;;;;;;;;;;;;;;15.56;53.25;101888.03;4898170;28;98516;-69
2024/02/17 12:07:41;;;;;;;;;;;;;;;15.48;53.40;101885.81;4911797;28;98537;-66
2024/02/17 12:10:09;;;;;;;;;;;;;;;15.40;53.54;101895.28;4917848;28;97961;-69
2024/02/17 12:12:40;;;;;;;;;;;;;;;15.30;53.56;101897.16;4895120;28;98241;-66
2024/02/17 12:15:12;;;;;;;;;;;;;;;15.26;53.60;101905.03;4877694;28;98328;-66
2024/02/17 12:17:43;;;;;;;;;;;;;;;15.27;53.43;101906.66;4930839;28;98092;-69
2024/02/17 12:20:18;;;;;;;;;;;;;;;15.29;53.48;101903.66;4901204;28;98041;-69
2024/02/17 12:22:50;;;;;;;;;;;;;;;15.32;53.37;101905.84;4885850;28;98486;-69
2024/02/17 12:25:17;;;;;;;;;;;;;;;15.31;53.40;101899.59;4900906;28;98435;-66
2024/02/17 12:27:45;;;;;;;;;;;;;;;15.33;53.24;101905.59;4884579;28;98054;-69
2024/02/17 12:30:13;;;;;;;;;;;;;;;15.32;53.49;101909.38;4903364;28;98231;-66
2024/02/17 12:32:43;;;;;;;;;;;;;;;15.33;53.38;101911.03;4907655;28;98195;-66
2024/02/17 12:35:21;;;;;;;;;;;;;;;15.41;53.27;101912.44;4898233;28;98308;-66
2024/02/17 12:37:49;;;;;;;;;;;;;;;15.45;53.05;101906.19;4898734;28;98664;-66
2024/02/17 12:40:22;;;;;;;;;;;;;;;15.45;53.04;101913.53;4904076;28;98579;-66